Etusivu
METAR-TAF:

METAR-TAF

Lentoasemat :

Sotilaslentoasema

Morón de la Frontera, Espanja

Leveyspiiri: 37-09N, Pituuspiiri: 005-37W, korkeus merenpinnasta: 87 m

Tämänhetkinen sää

Tämä raportti tehtiin 12 minuuttia sitten, kello 03.00 UTC
Tuuli 7 kn idästä/koillisesta
Lämpötila 11°C
Kosteus 76%
Ilmanpaine 1023 hPa
Näkyvyys 10 km tai enemmän
ei pilviä alle 1500 m:ssä eikä cumulonimbus-pilviä

METAR: LEMO 200300Z 07007KT CAVOK 11/07 Q1023 NOSIG

Aika: 04:12 (03:12 UTC)

Sääennuste

Tämä raportti tehtiin 1 tunti ja 12 minuuttia sitten, kello 02.00 UTC
Ennuste voimassa 20. päivästä klo 03 UTC - 20. päivään klo 12 UTC
Tuuli 6 kn idästä
Näkyvyys 10 km tai enemmän
Muutamia pilviä 4000 ft:n korkeudessa

TAF: LEMO 200200Z 2003/2012 08006KT 9999 FEW040

Säähavainnot ja -ennusteet yli 4000 lentoasemalta (METAR- ja TAF-raportit).

Käytössä olevat sääasemat on merkitty karttaan keltaisilla ja punaisilla pisteillä.

Aseta hiiri pisteen päälle nähdäksesi sääaseman nimen.

Klikkaa sitten nähdäksesi säähavainnot ja -ennusteet.

Kartan vaihtaminen: klikkaa mustalla rastilla varustettuja vihreitä pisteitä, niin voit zoomata sisään; viivalla varustettua vihreää pistettä, niin voit zoomata ulos tai vihreitä nuolia, niin pääset viereisille kartoille.


METAR-TAF: